Glastonbury, Connecticut
Current Conditions -  °F | °C
As of 12:53 PM on Tuesday 21 Oct 2014 (Local Time) from KHFD Reporting Station
Broken Clouds Broken Clouds  
Wind Chill: 64°   Ceiling: 8500
Heat Index: 64°   Visibility: 10mi
Dew Point: 50°   Wind: 7mph
Humidity: 60%   Direction: NA
Pressure: 29.9"   Gusts: NA
Location:  41.71°N, 72.61°W
Report Text: KHFD 211653Z VRB06KT 10SM BKN085 18/10 A2990 RMK AO2 SLP124 T01780100
Loading
Personal Weather Stations






























Interactive Weather Map
Tropical Storm Tracking
New forecast layout! Learn more

10-Day Weather Forecast

Advertisements
Track Severe Weather on mobile